Time;durP1;ratioP1;P1;durP2;ratioP2;P2;SDS_P1;SDS_P2;PMS_P1;PMS_P2;Temp;Humidity;BMP_temperature;BMP_pressure;BME280_temperature;BME280_humidity;BME280_pressure;Samples;Min_cycle;Max_cycle;Signal;HPM_P1;HPM_P2
2021/06/23 00:02:18;;;;;;;;;37.50;33.75;;;;;-147.17;100.00;59696.56;4975999;28;51887;-51
2021/06/23 00:04:44;;;;;;;;;42.00;37.00;;;;;-147.17;100.00;59696.56;4976077;28;50975;-52
2021/06/23 00:07:10;;;;;;;;;42.25;37.75;;;;;-147.17;100.00;59696.56;4975956;28;51092;-51
2021/06/23 00:09:36;;;;;;;;;44.25;38.00;;;;;-147.17;100.00;59696.56;4958810;28;51281;-52
2021/06/23 00:12:01;;;;;;;;;47.25;38.00;;;;;-147.17;100.00;59696.56;4975619;28;52761;-53
2021/06/23 00:14:27;;;;;;;;;48.00;38.25;;;;;-147.17;100.00;59696.56;4975910;28;51047;-54
2021/06/23 00:16:53;;;;;;;;;48.25;40.00;;;;;-147.17;100.00;59696.56;4978471;28;51041;-53
2021/06/23 00:19:20;;;;;;;;;40.25;35.00;;;;;-147.17;100.00;59696.56;4984589;28;51138;-53
2021/06/23 00:21:46;;;;;;;;;43.00;37.00;;;;;-147.17;100.00;59696.56;4975112;28;52222;-53
2021/06/23 00:24:11;;;;;;;;;43.50;37.25;;;;;-147.17;100.00;59696.56;4975723;28;51013;-52
2021/06/23 00:26:37;;;;;;;;;39.25;35.00;;;;;-147.17;100.00;59696.56;4975621;28;50876;-53
2021/06/23 00:29:03;;;;;;;;;41.00;36.00;;;;;-147.17;100.00;59696.56;4958047;28;50927;-53
2021/06/23 00:31:30;;;;;;;;;42.50;35.75;;;;;-147.17;100.00;59696.56;4988384;28;51995;-51
2021/06/23 00:33:58;;;;;;;;;38.75;35.25;;;;;-147.17;100.00;59696.56;4980426;28;51064;-53
2021/06/23 00:36:24;;;;;;;;;39.00;35.00;;;;;-147.17;100.00;59696.56;4976227;28;50990;-53
2021/06/23 00:38:49;;;;;;;;;45.00;37.00;;;;;-147.17;100.00;59696.56;4986132;28;51184;-52
2021/06/23 00:41:18;;;;;;;;;39.00;34.75;;;;;-147.17;100.00;59696.56;4974715;28;51118;-54
2021/06/23 00:43:45;;;;;;;;;35.75;33.25;;;;;-147.17;100.00;59696.56;4975372;28;51157;-54
2021/06/23 00:46:12;;;;;;;;;36.50;33.75;;;;;-147.17;100.00;59696.56;4975157;28;51117;-51
2021/06/23 00:48:37;;;;;;;;;42.00;36.75;;;;;-147.17;100.00;59696.56;4975603;28;51205;-53
2021/06/23 00:51:03;;;;;;;;;33.75;29.50;;;;;-147.17;100.00;59696.56;4980461;28;51942;-52
2021/06/23 00:53:29;;;;;;;;;43.00;36.75;;;;;-147.17;100.00;59696.56;4977390;28;51188;-51
2021/06/23 00:55:56;;;;;;;;;39.25;35.00;;;;;-147.17;100.00;59696.56;4993640;28;50923;-52
2021/06/23 00:58:23;;;;;;;;;39.00;34.00;;;;;-147.17;100.00;59696.56;4995055;28;51246;-50
2021/06/23 01:00:51;;;;;;;;;38.50;35.00;;;;;-147.17;100.00;59696.56;4994752;28;51922;-52
2021/06/23 01:03:17;;;;;;;;;41.75;36.25;;;;;-147.17;100.00;59696.56;4994688;28;50970;-53
2021/06/23 01:05:43;;;;;;;;;37.50;33.50;;;;;-147.17;100.00;59696.56;4993711;28;51121;-54
2021/06/23 01:08:09;;;;;;;;;39.25;35.00;;;;;-147.17;100.00;59696.56;4994960;28;51150;-50
2021/06/23 01:10:35;;;;;;;;;39.00;35.25;;;;;-147.17;100.00;59696.56;4994520;28;53233;-53
2021/06/23 01:13:19;;;;;;;;;42.50;37.50;;;;;-147.17;100.00;59696.56;4979937;28;51669;-49
2021/06/23 01:15:47;;;;;;;;;44.50;37.00;;;;;-147.17;100.00;59696.56;4984094;28;50952;-53
2021/06/23 01:18:12;;;;;;;;;41.00;36.50;;;;;-147.17;100.00;59696.56;4994448;28;51227;-51
2021/06/23 01:20:43;;;;;;;;;43.75;36.75;;;;;-147.17;100.00;59696.56;4994265;28;51039;-52
2021/06/23 01:23:13;;;;;;;;;44.50;38.25;;;;;-147.17;100.00;59696.56;4994274;28;50930;-54
2021/06/23 01:25:39;;;;;;;;;40.50;34.50;;;;;-147.17;100.00;59696.56;4994408;28;50985;-53
2021/06/23 01:28:05;;;;;;;;;39.25;34.75;;;;;-147.17;100.00;59696.56;4976753;28;51359;-51
2021/06/23 01:30:31;;;;;;;;;44.50;38.50;;;;;-147.17;100.00;59696.56;4994020;28;52919;-53
2021/06/23 01:32:57;;;;;;;;;37.75;33.50;;;;;-147.17;100.00;59696.56;4977313;28;51067;-53
2021/06/23 01:35:23;;;;;;;;;34.25;32.25;;;;;-147.17;100.00;59696.56;4980716;28;51014;-53
2021/06/23 01:37:48;;;;;;;;;40.75;35.75;;;;;-147.17;100.00;59696.56;4984804;28;50893;-53
2021/06/23 01:40:14;;;;;;;;;44.75;37.75;;;;;-147.17;100.00;59696.56;4976381;28;52043;-51
2021/06/23 01:42:40;;;;;;;;;44.00;37.25;;;;;-147.17;100.00;59696.56;4974252;28;51100;-51
2021/06/23 01:45:06;;;;;;;;;49.00;39.75;;;;;-147.17;100.00;59696.56;4974585;28;51672;-50
2021/06/23 01:47:32;;;;;;;;;43.00;37.25;;;;;-147.17;100.00;59696.56;4974557;28;50927;-53
2021/06/23 01:49:59;;;;;;;;;44.25;37.50;;;;;-147.17;100.00;59696.56;4984185;28;52286;-52
2021/06/23 01:52:25;;;;;;;;;44.75;37.75;;;;;-147.17;100.00;59696.56;4993726;28;51198;-53
2021/06/23 01:54:52;;;;;;;;;45.50;38.25;;;;;-147.17;100.00;59696.56;4994005;28;51039;-50
2021/06/23 01:57:18;;;;;;;;;46.00;40.00;;;;;-147.17;100.00;59696.56;4994164;28;51228;-50
2021/06/23 01:59:44;;;;;;;;;48.00;38.50;;;;;-147.17;100.00;59696.56;4994006;28;51917;-52
2021/06/23 02:02:14;;;;;;;;;46.25;39.00;;;;;-147.17;100.00;59696.56;4976137;28;51041;-52
2021/06/23 02:04:43;;;;;;;;;48.50;40.75;;;;;-147.17;100.00;59696.56;4993563;28;50957;-52
2021/06/23 02:07:33;;;;;;;;;46.25;39.00;;;;;-147.17;100.00;59696.56;4976319;28;51211;-52
2021/06/23 02:10:13;;;;;;;;;46.25;37.75;;;;;-147.17;100.00;59696.56;4993431;28;52097;-53
2021/06/23 02:13:03;;;;;;;;;47.50;39.25;;;;;-147.17;100.00;59696.56;4992362;28;50851;-54
2021/06/23 02:15:29;;;;;;;;;41.75;36.75;;;;;-147.17;100.00;59696.56;4986677;28;51029;-51
2021/06/23 02:17:55;;;;;;;;;43.25;37.25;;;;;-147.17;100.00;59696.56;4956354;28;51533;-51
2021/06/23 02:20:25;;;;;;;;;46.75;38.25;;;;;-147.17;100.00;59696.56;4973473;28;51065;-51
2021/06/23 02:22:52;;;;;;;;;48.25;40.25;;;;;-147.17;100.00;59696.56;4973593;28;50994;-53
2021/06/23 02:25:18;;;;;;;;;44.75;37.75;;;;;-147.17;100.00;59696.56;4973975;28;51094;-54
2021/06/23 02:27:43;;;;;;;;;44.75;36.25;;;;;-147.17;100.00;59696.56;4973993;28;51372;-50
2021/06/23 02:30:11;;;;;;;;;42.75;37.00;;;;;-147.17;100.00;59696.56;4987092;28;52203;-50
2021/06/23 02:32:38;;;;;;;;;48.50;38.75;;;;;-147.17;100.00;59696.56;4993254;28;51089;-50
2021/06/23 02:35:06;;;;;;;;;41.00;36.25;;;;;-147.17;100.00;59696.56;4985167;28;51363;-50
2021/06/23 02:37:32;;;;;;;;;43.00;37.00;;;;;-147.17;100.00;59696.56;4984749;28;50896;-51
2021/06/23 02:39:58;;;;;;;;;40.00;35.25;;;;;-147.17;100.00;59696.56;4973670;28;51105;-53
2021/06/23 02:42:25;;;;;;;;;41.00;34.75;;;;;-147.17;100.00;59696.56;4973565;28;51189;-50
2021/06/23 02:44:51;;;;;;;;;36.00;32.50;;;;;-147.17;100.00;59696.56;4973030;28;51080;-53
2021/06/23 02:47:19;;;;;;;;;44.50;35.50;;;;;-147.17;100.00;59696.56;4979801;28;51134;-48
2021/06/23 02:49:46;;;;;;;;;41.75;37.00;;;;;-147.17;100.00;59696.56;4987868;28;52102;-53
2021/06/23 02:52:12;;;;;;;;;37.00;34.00;;;;;-147.17;100.00;59696.56;4991587;28;51066;-51
2021/06/23 02:54:37;;;;;;;;;39.00;34.50;;;;;-147.17;100.00;59696.56;4976039;28;51071;-49
2021/06/23 02:57:04;;;;;;;;;37.50;31.75;;;;;-147.17;100.00;59696.56;4985918;28;51375;-51
2021/06/23 02:59:30;;;;;;;;;38.75;34.00;;;;;-147.17;100.00;59696.56;4977789;28;52001;-51
2021/06/23 03:01:56;;;;;;;;;37.25;31.75;;;;;-147.17;100.00;59696.56;4973323;28;51031;-51
2021/06/23 03:04:22;;;;;;;;;36.50;32.25;;;;;-147.17;100.00;59696.56;4989374;28;51272;-54
2021/06/23 03:06:47;;;;;;;;;38.00;34.25;;;;;-147.17;100.00;59696.56;4974690;28;51251;-55
2021/06/23 03:09:13;;;;;;;;;33.00;30.00;;;;;-147.17;100.00;59696.56;4972985;28;52187;-53
2021/06/23 03:11:40;;;;;;;;;32.50;31.25;;;;;-147.17;100.00;59696.56;4973376;28;51029;-51
2021/06/23 03:14:07;;;;;;;;;35.00;32.50;;;;;-147.17;100.00;59696.56;4973402;28;50993;-51
2021/06/23 03:16:33;;;;;;;;;31.75;29.00;;;;;-147.17;100.00;59696.56;4974771;28;50959;-49
2021/06/23 03:18:58;;;;;;;;;29.75;28.75;;;;;-147.17;100.00;59696.56;4972979;28;52081;-49
2021/06/23 03:21:24;;;;;;;;;29.00;27.00;;;;;-147.17;100.00;59696.56;4974558;28;51239;-49
2021/06/23 03:23:51;;;;;;;;;32.75;30.50;;;;;-147.17;100.00;59696.56;4984804;28;50999;-53
2021/06/23 03:26:17;;;;;;;;;27.00;26.00;;;;;-147.17;100.00;59696.56;4973116;28;51387;-50
2021/06/23 03:28:43;;;;;;;;;29.50;29.50;;;;;-147.17;100.00;59696.56;4973032;28;52307;-50
2021/06/23 03:31:09;;;;;;;;;32.50;29.50;;;;;-147.17;100.00;59696.56;4984546;28;51476;-48
2021/06/23 03:33:35;;;;;;;;;29.00;27.50;;;;;-147.17;100.00;59696.56;4975623;28;51291;-51
2021/06/23 03:36:00;;;;;;;;;27.00;26.00;;;;;-147.17;100.00;59696.56;4976847;28;50919;-48
2021/06/23 03:38:26;;;;;;;;;28.25;27.50;;;;;-147.17;100.00;59696.56;4979669;28;52183;-50
2021/06/23 03:40:51;;;;;;;;;31.00;28.75;;;;;-147.17;100.00;59696.56;4974314;28;50986;-50
2021/06/23 03:43:19;;;;;;;;;33.25;31.25;;;;;-147.17;100.00;59696.56;4960505;28;51122;-50
2021/06/23 03:45:44;;;;;;;;;26.50;25.50;;;;;-147.17;100.00;59696.56;4983177;28;51231;-51
2021/06/23 03:48:10;;;;;;;;;29.25;27.75;;;;;-147.17;100.00;59696.56;4990546;28;51270;-53
2021/06/23 03:50:36;;;;;;;;;32.75;27.00;;;;;-147.17;100.00;59696.56;4975932;28;51165;-54
2021/06/23 03:53:02;;;;;;;;;24.00;23.75;;;;;-147.17;100.00;59696.56;4973051;28;51073;-53
2021/06/23 03:55:28;;;;;;;;;24.00;23.50;;;;;-147.17;100.00;59696.56;4972806;28;51297;-50
2021/06/23 03:57:55;;;;;;;;;29.75;27.75;;;;;-147.17;100.00;59696.56;4954891;28;51125;-54
2021/06/23 04:00:23;;;;;;;;;38.75;31.50;;;;;-147.17;100.00;59696.56;4972524;28;50996;-53
2021/06/23 04:02:48;;;;;;;;;27.00;26.00;;;;;-147.17;100.00;59696.56;4972781;28;51085;-50
2021/06/23 04:05:14;;;;;;;;;29.00;26.00;;;;;-147.17;100.00;59696.56;4972212;28;51363;-51
2021/06/23 04:07:40;;;;;;;;;27.25;26.00;;;;;-147.17;100.00;59696.56;4972248;28;51870;-51
2021/06/23 04:10:06;;;;;;;;;31.00;29.00;;;;;-147.17;100.00;59696.56;4972231;28;50921;-53
2021/06/23 04:12:32;;;;;;;;;31.75;29.25;;;;;-147.17;100.00;59696.56;4955269;28;51098;-53
2021/06/23 04:14:57;;;;;;;;;29.50;27.75;;;;;-147.17;100.00;59696.56;4972540;28;50959;-51
2021/06/23 04:17:23;;;;;;;;;30.50;30.00;;;;;-147.17;100.00;59696.56;4972218;28;52180;-49
2021/06/23 04:19:48;;;;;;;;;27.00;24.50;;;;;-147.17;100.00;59696.56;4972085;28;51018;-51
2021/06/23 04:22:14;;;;;;;;;30.75;28.00;;;;;-147.17;100.00;59696.56;4973148;28;51194;-52
2021/06/23 04:24:39;;;;;;;;;31.75;29.50;;;;;-147.17;100.00;59696.56;4972410;28;51276;-54
2021/06/23 04:27:05;;;;;;;;;28.00;26.50;;;;;-147.17;100.00;59696.56;4978076;28;51155;-53
2021/06/23 04:29:30;;;;;;;;;28.25;27.50;;;;;-147.17;100.00;59696.56;4974102;28;51102;-49
2021/06/23 04:31:56;;;;;;;;;29.75;26.25;;;;;-147.17;100.00;59696.56;4983641;28;51008;-54
2021/06/23 04:34:21;;;;;;;;;28.00;26.50;;;;;-147.17;100.00;59696.56;4978581;28;51118;-55
2021/06/23 04:36:46;;;;;;;;;26.25;25.00;;;;;-147.17;100.00;59696.56;4973412;28;51209;-53
2021/06/23 04:39:12;;;;;;;;;30.25;27.25;;;;;-147.17;100.00;59696.56;4981887;28;51961;-53
2021/06/23 04:41:37;;;;;;;;;27.00;25.00;;;;;-147.17;100.00;59696.56;4975640;28;51079;-53
2021/06/23 04:44:03;;;;;;;;;34.75;31.75;;;;;-147.17;100.00;59696.56;4974983;28;51267;-53
2021/06/23 04:46:32;;;;;;;;;25.00;24.00;;;;;-147.17;100.00;59696.56;4975395;28;52043;-52
2021/06/23 04:48:58;;;;;;;;;31.75;30.25;;;;;-147.17;100.00;59696.56;4971549;28;51053;-51
2021/06/23 04:51:24;;;;;;;;;25.25;24.00;;;;;-147.17;100.00;59696.56;4974895;28;51197;-54
2021/06/23 04:53:49;;;;;;;;;26.25;24.50;;;;;-147.17;100.00;59696.56;4975571;28;51356;-52
2021/06/23 04:56:14;;;;;;;;;27.25;26.75;;;;;-147.17;100.00;59696.56;4975302;28;52181;-53
2021/06/23 04:58:40;;;;;;;;;26.00;23.75;;;;;-147.17;100.00;59696.56;4990233;28;50919;-53
2021/06/23 05:01:05;;;;;;;;;26.50;24.00;;;;;-147.17;100.00;59696.56;4977395;28;51297;-51
2021/06/23 05:03:30;;;;;;;;;28.75;26.75;;;;;-147.17;100.00;59696.56;4957770;28;51285;-54
2021/06/23 05:05:57;;;;;;;;;29.00;26.75;;;;;-147.17;100.00;59696.56;4974809;28;50927;-54
2021/06/23 05:08:23;;;;;;;;;29.50;27.00;;;;;-147.17;100.00;59696.56;4974768;28;50978;-52
2021/06/23 05:10:49;;;;;;;;;26.25;25.50;;;;;-147.17;100.00;59696.56;4957517;28;51221;-50
2021/06/23 05:13:14;;;;;;;;;24.00;23.50;;;;;-147.17;100.00;59696.56;4974843;28;51252;-54
2021/06/23 05:15:39;;;;;;;;;23.75;23.00;;;;;-147.17;100.00;59696.56;4974710;28;51041;-52
2021/06/23 05:18:05;;;;;;;;;25.50;24.00;;;;;-147.17;100.00;59696.56;4974810;28;51014;-52
2021/06/23 05:20:30;;;;;;;;;31.00;30.75;;;;;-147.17;100.00;59696.56;4957166;28;51352;-51
2021/06/23 05:22:56;;;;;;;;;32.00;30.25;;;;;-147.17;100.00;59696.56;4975287;28;51121;-49
2021/06/23 05:25:21;;;;;;;;;32.25;30.75;;;;;-147.17;100.00;59696.56;4979110;28;52076;-51
2021/06/23 05:27:48;;;;;;;;;30.00;27.50;;;;;-147.17;100.00;59696.56;4974741;28;50977;-50
2021/06/23 05:30:14;;;;;;;;;30.25;28.75;;;;;-147.17;100.00;59696.56;4982710;28;51126;-52
2021/06/23 05:32:39;;;;;;;;;30.50;29.00;;;;;-147.17;100.00;59696.56;4979695;28;50908;-52
2021/06/23 05:35:05;;;;;;;;;32.25;31.00;;;;;-147.17;100.00;59696.56;4980668;28;51718;-50
2021/06/23 05:37:31;;;;;;;;;30.25;27.75;;;;;-147.17;100.00;59696.56;4985208;28;51061;-53
2021/06/23 05:39:56;;;;;;;;;31.75;30.50;;;;;-147.17;100.00;59696.56;4974663;28;51018;-53
2021/06/23 05:42:22;;;;;;;;;31.50;30.25;;;;;-147.17;100.00;59696.56;4975163;28;50985;-52
2021/06/23 05:44:47;;;;;;;;;28.75;26.50;;;;;-147.17;100.00;59696.56;4976689;28;51260;-50
2021/06/23 05:47:12;;;;;;;;;32.50;29.50;;;;;-147.17;100.00;59696.56;4993807;28;50908;-53
2021/06/23 05:49:38;;;;;;;;;34.75;32.75;;;;;-147.17;100.00;59696.56;4993926;28;50934;-52
2021/06/23 05:52:04;;;;;;;;;35.50;32.25;;;;;-147.17;100.00;59696.56;4993578;28;51417;-48
2021/06/23 05:54:30;;;;;;;;;31.75;27.00;;;;;-147.17;100.00;59696.56;4976438;28;51265;-51
2021/06/23 05:56:56;;;;;;;;;37.25;30.25;;;;;-147.17;100.00;59696.56;4984819;28;51071;-53
2021/06/23 05:59:21;;;;;;;;;29.50;29.25;;;;;-147.17;100.00;59696.56;4974313;28;51060;-51
2021/06/23 06:01:46;;;;;;;;;28.75;28.00;;;;;-147.17;100.00;59696.56;4974367;28;50906;-51
2021/06/23 06:04:12;;;;;;;;;33.75;30.75;;;;;-147.17;100.00;59696.56;4973842;28;52110;-51
2021/06/23 06:06:37;;;;;;;;;30.50;30.00;;;;;-147.17;100.00;59696.56;4974007;28;51038;-50
2021/06/23 06:09:03;;;;;;;;;29.50;26.00;;;;;-147.17;100.00;59696.56;4974022;28;51280;-53
2021/06/23 06:11:28;;;;;;;;;34.25;31.50;;;;;-147.17;100.00;59696.56;4974031;28;51311;-54
2021/06/23 06:13:54;;;;;;;;;28.50;27.00;;;;;-147.17;100.00;59696.56;4974946;28;51111;-52
2021/06/23 06:16:19;;;;;;;;;31.50;29.75;;;;;-147.17;100.00;59696.56;4973789;28;51043;-54
2021/06/23 06:18:45;;;;;;;;;31.75;28.25;;;;;-147.17;100.00;59696.56;4972716;28;51127;-57
2021/06/23 06:21:11;;;;;;;;;23.75;22.00;;;;;-147.17;100.00;59696.56;4973890;28;51286;-52
2021/06/23 06:23:37;;;;;;;;;38.25;34.25;;;;;-147.17;100.00;59696.56;4973606;28;52136;-53
2021/06/23 06:26:02;;;;;;;;;31.25;29.75;;;;;-147.17;100.00;59696.56;4973296;28;51091;-52
2021/06/23 06:28:28;;;;;;;;;33.25;29.25;;;;;-147.17;100.00;59696.56;4972616;28;50966;-59
2021/06/23 06:30:53;;;;;;;;;28.50;27.75;;;;;-147.17;100.00;59696.56;4966017;28;51284;-49
2021/06/23 06:33:19;;;;;;;;;28.50;27.50;;;;;-147.17;100.00;59696.56;4972581;28;53224;-49
2021/06/23 06:35:44;;;;;;;;;27.50;27.25;;;;;-147.17;100.00;59696.56;4992608;28;51243;-53
2021/06/23 06:38:10;;;;;;;;;35.25;31.25;;;;;-147.17;100.00;59696.56;4993213;28;51772;-52
2021/06/23 06:40:35;;;;;;;;;32.25;29.50;;;;;-147.17;100.00;59696.56;4972450;28;51380;-55
2021/06/23 06:43:01;;;;;;;;;29.25;28.75;;;;;-147.17;100.00;59696.56;4992071;28;51354;-50
2021/06/23 06:45:27;;;;;;;;;34.50;32.00;;;;;-147.17;100.00;59696.56;4978317;28;51018;-52
2021/06/23 06:47:52;;;;;;;;;32.25;30.75;;;;;-147.17;100.00;59696.56;4973310;28;51122;-52
2021/06/23 06:50:18;;;;;;;;;34.00;31.25;;;;;-147.17;100.00;59696.56;4984449;28;51263;-51
2021/06/23 06:52:43;;;;;;;;;35.25;33.75;;;;;-147.17;100.00;59696.56;4972823;28;51252;-52
2021/06/23 06:55:09;;;;;;;;;39.00;34.25;;;;;-147.17;100.00;59696.56;4973401;28;51153;-50
2021/06/23 06:57:35;;;;;;;;;40.50;36.00;;;;;-147.17;100.00;59696.56;4973291;28;50959;-49
2021/06/23 07:00:03;;;;;;;;;37.50;33.00;;;;;-147.17;100.00;59696.56;4955873;28;51167;-52
2021/06/23 07:02:28;;;;;;;;;37.25;33.50;;;;;-147.17;100.00;59696.56;4960108;28;53685;-54
2021/06/23 07:04:53;;;;;;;;;38.75;34.75;;;;;-147.17;100.00;59696.56;4992341;28;50974;-51
2021/06/23 07:07:19;;;;;;;;;31.00;30.25;;;;;-147.17;100.00;59696.56;4973237;28;51201;-52
2021/06/23 07:09:44;;;;;;;;;36.75;32.50;;;;;-147.17;100.00;59696.56;4973001;28;51242;-52
2021/06/23 07:12:10;;;;;;;;;35.25;32.75;;;;;-147.17;100.00;59696.56;4972837;28;51978;-52
2021/06/23 07:14:35;;;;;;;;;39.25;34.00;;;;;-147.17;100.00;59696.56;4973086;28;51019;-50
2021/06/23 07:17:01;;;;;;;;;32.75;31.00;;;;;-147.17;100.00;59696.56;4972886;28;51032;-50
2021/06/23 07:19:26;;;;;;;;;37.25;34.25;;;;;-147.17;100.00;59696.56;4972315;28;51022;-49
2021/06/23 07:21:52;;;;;;;;;35.50;32.50;;;;;-147.17;100.00;59696.56;4972301;28;52179;-50
2021/06/23 07:24:18;;;;;;;;;33.00;30.00;;;;;-147.17;100.00;59696.56;4973018;28;51149;-51
2021/06/23 07:26:52;;;;;;;;;28.00;26.75;;;;;-147.17;100.00;59696.56;4972729;28;50995;-52
2021/06/23 07:29:18;;;;;;;;;38.25;33.25;;;;;-147.17;100.00;59696.56;4972527;28;51391;-51
2021/06/23 07:31:51;;;;;;;;;38.50;31.75;;;;;-147.17;100.00;59696.56;4984771;28;51848;-52
2021/06/23 07:37:02;;;;;;;;;31.25;28.75;;;;;-147.17;100.00;59696.56;4976113;28;51139;-51
2021/06/23 07:39:28;;;;;;;;;36.00;31.75;;;;;-147.17;100.00;59696.56;4981638;28;51296;-51
2021/06/23 07:41:54;;;;;;;;;31.50;29.75;;;;;-147.17;100.00;59696.56;4991782;28;51824;-52
2021/06/23 07:44:24;;;;;;;;;31.00;28.50;;;;;-147.17;100.00;59696.56;4974267;28;51046;-56
2021/06/23 07:46:54;;;;;;;;;34.00;31.25;;;;;-147.17;100.00;59696.56;4991933;28;51018;-54
2021/06/23 07:49:21;;;;;;;;;31.25;29.25;;;;;-147.17;100.00;59696.56;4991181;28;51190;-54
2021/06/23 08:10:09;;;;;;;;;29.75;29.25;;;;;-147.17;100.00;59696.56;4991739;28;50971;-55
2021/06/23 08:15:06;;;;;;;;;30.50;28.75;;;;;-147.17;100.00;59696.56;4994610;28;51037;-55
2021/06/23 08:17:32;;;;;;;;;32.00;28.50;;;;;-147.17;100.00;59696.56;4977491;28;51236;-53
2021/06/23 08:19:57;;;;;;;;;34.50;30.50;;;;;-147.17;100.00;59696.56;4994926;28;51183;-54
2021/06/23 08:22:23;;;;;;;;;33.50;31.25;;;;;-147.17;100.00;59696.56;4994023;28;52700;-55
2021/06/23 08:24:48;;;;;;;;;30.50;29.25;;;;;-147.17;100.00;59696.56;4994999;28;50953;-54
2021/06/23 08:27:14;;;;;;;;;30.25;29.00;;;;;-147.17;100.00;59696.56;4995073;28;50937;-55
2021/06/23 08:29:39;;;;;;;;;35.00;31.00;;;;;-147.17;100.00;59696.56;4994966;28;51083;-52
2021/06/23 08:32:05;;;;;;;;;27.00;25.75;;;;;-147.17;100.00;59696.56;4985357;28;51162;-56
2021/06/23 08:34:31;;;;;;;;;31.25;30.25;;;;;-147.17;100.00;59696.56;4981510;28;51110;-54
2021/06/23 08:36:56;;;;;;;;;31.50;29.25;;;;;-147.17;100.00;59696.56;4979104;28;50896;-55
2021/06/23 08:39:22;;;;;;;;;28.50;28.50;;;;;-147.17;100.00;59696.56;4984527;28;51297;-55
2021/06/23 08:41:47;;;;;;;;;31.75;30.00;;;;;-147.17;100.00;59696.56;4994416;28;51306;-55
2021/06/23 08:44:12;;;;;;;;;27.50;26.50;;;;;-147.17;100.00;59696.56;4994445;28;51033;-53
2021/06/23 08:46:41;;;;;;;;;28.75;28.25;;;;;-147.17;100.00;59696.56;4994732;28;51068;-55
2021/06/23 08:49:08;;;;;;;;;34.00;32.00;;;;;-147.17;100.00;59696.56;4994678;28;51355;-55
2021/06/23 08:51:35;;;;;;;;;30.50;29.75;;;;;-147.17;100.00;59696.56;4994569;28;51743;-56
2021/06/23 08:54:01;;;;;;;;;33.00;30.50;;;;;-147.17;100.00;59696.56;4994364;28;51113;-54
2021/06/23 08:56:27;;;;;;;;;36.25;33.50;;;;;-147.17;100.00;59696.56;4994959;28;51378;-55
2021/06/23 08:58:52;;;;;;;;;30.50;29.50;;;;;-147.17;100.00;59696.56;4994400;28;51065;-54
2021/06/23 09:01:18;;;;;;;;;27.50;27.25;;;;;-147.17;100.00;59696.56;4992510;28;51185;-54
2021/06/23 09:03:58;;;;;;;;;33.50;30.50;;;;;-147.17;100.00;59696.56;4977953;28;51007;-56
2021/06/23 09:06:51;;;;;;;;;35.00;32.25;;;;;-147.17;100.00;59696.56;4975114;28;51034;-53
2021/06/23 09:09:17;;;;;;;;;25.00;25.00;;;;;-147.17;100.00;59696.56;4968533;28;51233;-54
2021/06/23 09:11:43;;;;;;;;;29.25;28.00;;;;;-147.17;100.00;59696.56;4974448;28;52109;-55
2021/06/23 09:14:14;;;;;;;;;25.00;23.25;;;;;-147.17;100.00;59696.56;4974789;28;50943;-55
2021/06/23 09:17:04;;;;;;;;;30.25;29.25;;;;;-147.17;100.00;59696.56;4956864;28;51247;-54
2021/06/23 09:19:31;;;;;;;;;29.50;27.50;;;;;-147.17;100.00;59696.56;4956096;28;51019;-56
2021/06/23 09:21:57;;;;;;;;;23.25;22.75;;;;;-147.17;100.00;59696.56;4974159;28;50966;-54
2021/06/23 09:24:39;;;;;;;;;29.25;26.75;;;;;-147.17;100.00;59696.56;4974214;28;51085;-52
2021/06/23 09:27:18;;;;;;;;;32.50;30.75;;;;;-147.17;100.00;59696.56;4982430;28;50952;-52
2021/06/23 09:29:43;;;;;;;;;28.00;28.00;;;;;-147.17;100.00;59696.56;4994035;28;51123;-54
2021/06/23 09:32:09;;;;;;;;;25.50;24.75;;;;;-147.17;100.00;59696.56;4983619;28;51058;-56
2021/06/23 09:34:45;;;;;;;;;28.50;27.00;;;;;-147.17;100.00;59696.56;4980398;28;50990;-53
2021/06/23 09:37:37;;;;;;;;;25.50;25.00;;;;;-147.17;100.00;59696.56;4982282;28;51179;-54
2021/06/23 09:40:18;;;;;;;;;28.50;25.25;;;;;-147.17;100.00;59696.56;4974666;28;51108;-54
2021/06/23 09:42:49;;;;;;;;;30.75;29.50;;;;;-147.17;100.00;59696.56;4973682;28;50899;-56
2021/06/23 09:45:18;;;;;;;;;32.50;29.75;;;;;-147.17;100.00;59696.56;4974054;28;51019;-55
2021/06/23 09:47:46;;;;;;;;;28.50;27.50;;;;;-147.17;100.00;59696.56;4973720;28;51150;-55
2021/06/23 09:50:21;;;;;;;;;25.75;24.25;;;;;-147.17;100.00;59696.56;4973847;28;50946;-54
2021/06/23 09:53:09;;;;;;;;;28.00;26.25;;;;;-147.17;100.00;59696.56;4973415;28;51085;-55
2021/06/23 09:55:43;;;;;;;;;31.75;29.50;;;;;-147.17;100.00;59696.56;4973435;28;51101;-57
2021/06/23 09:58:19;;;;;;;;;29.75;28.50;;;;;-147.17;100.00;59696.56;4974045;28;51145;-55
2021/06/23 10:01:09;;;;;;;;;27.50;25.00;;;;;-147.17;100.00;59696.56;4979012;28;51372;-54
2021/06/23 10:04:06;;;;;;;;;28.00;27.25;;;;;-147.17;100.00;59696.56;4977846;28;51036;-54
2021/06/23 10:06:34;;;;;;;;;30.00;27.50;;;;;-147.17;100.00;59696.56;4973478;28;50970;-55
2021/06/23 10:09:25;;;;;;;;;28.50;28.00;;;;;-147.17;100.00;59696.56;4956080;28;51204;-55
2021/06/23 10:12:08;;;;;;;;;29.25;28.75;;;;;-147.17;100.00;59696.56;4973925;28;51198;-53
2021/06/23 10:14:47;;;;;;;;;27.00;26.75;;;;;-147.17;100.00;59696.56;4939789;28;52295;-56
2021/06/23 10:17:13;;;;;;;;;30.00;29.50;;;;;-147.17;100.00;59696.56;4980981;28;51069;-55
2021/06/23 10:19:39;;;;;;;;;27.25;27.00;;;;;-147.17;100.00;59696.56;4992736;28;51014;-52
2021/06/23 10:22:06;;;;;;;;;25.00;25.00;;;;;-147.17;100.00;59696.56;4993382;28;51319;-55
2021/06/23 10:24:33;;;;;;;;;30.75;29.75;;;;;-147.17;100.00;59696.56;4992494;28;52165;-53
2021/06/23 10:27:02;;;;;;;;;28.75;27.75;;;;;-147.17;100.00;59696.56;4993193;28;50915;-53
2021/06/23 10:29:33;;;;;;;;;34.00;30.75;;;;;-147.17;100.00;59696.56;4974718;28;50948;-53
2021/06/23 10:32:01;;;;;;;;;29.00;28.25;;;;;-147.17;100.00;59696.56;4984218;28;50953;-53
2021/06/23 10:34:26;;;;;;;;;29.00;29.00;;;;;-147.17;100.00;59696.56;4979103;28;52307;-56
2021/06/23 10:36:53;;;;;;;;;30.25;29.25;;;;;-147.17;100.00;59696.56;4983168;28;51337;-53
2021/06/23 10:39:20;;;;;;;;;30.00;29.25;;;;;-147.17;100.00;59696.56;4980909;28;51115;-55
2021/06/23 10:41:52;;;;;;;;;26.00;26.00;;;;;-147.17;100.00;59696.56;4973175;28;51035;-54
2021/06/23 10:44:20;;;;;;;;;26.25;26.25;;;;;-147.17;100.00;59696.56;4972666;28;51327;-54
2021/06/23 10:46:48;;;;;;;;;29.50;26.75;;;;;-147.17;100.00;59696.56;4973127;28;51109;-55
2021/06/23 10:49:18;;;;;;;;;27.25;27.00;;;;;-147.17;100.00;59696.56;4954886;28;50970;-55
2021/06/23 10:51:45;;;;;;;;;29.75;29.00;;;;;-147.17;100.00;59696.56;4973275;28;51213;-55
2021/06/23 10:54:29;;;;;;;;;32.00;29.75;;;;;-147.17;100.00;59696.56;4972468;28;51096;-54
2021/06/23 10:56:54;;;;;;;;;28.75;28.25;;;;;-147.17;100.00;59696.56;4972244;28;51057;-55
2021/06/23 10:59:33;;;;;;;;;31.25;30.00;;;;;-147.17;100.00;59696.56;4972828;28;51138;-54
2021/06/23 11:02:08;;;;;;;;;28.50;28.50;;;;;-147.17;100.00;59696.56;4972435;28;51116;-53
2021/06/23 11:05:02;;;;;;;;;33.00;31.50;;;;;-147.17;100.00;59696.56;4973778;28;52905;-52
2021/06/23 11:07:34;;;;;;;;;25.25;25.00;;;;;-147.17;100.00;59696.56;4991951;28;51093;-53
2021/06/23 11:10:12;;;;;;;;;31.75;30.00;;;;;-147.17;100.00;59696.56;4991890;28;51045;-53
2021/06/23 11:12:48;;;;;;;;;27.00;26.00;;;;;-147.17;100.00;59696.56;4992350;28;50996;-55
2021/06/23 11:15:41;;;;;;;;;27.25;26.00;;;;;-147.17;100.00;59696.56;4991654;28;51231;-51
2021/06/23 11:18:19;;;;;;;;;24.25;23.75;;;;;-147.17;100.00;59696.56;4991737;28;51009;-55
2021/06/23 11:20:45;;;;;;;;;28.00;28.00;;;;;-147.17;100.00;59696.56;4974069;28;51045;-53
2021/06/23 11:23:45;;;;;;;;;26.00;26.00;;;;;-147.17;100.00;59696.56;4991778;28;50872;-54